Accueil
METAR-TAF:

METAR-TAF

Aéroports :

Buochs, Suisse

latitude: 46-58-28N, longitude: 8-23-49E, altitude: 449 m

Observation

Le bulletin a été fait il y a 30 minutes, à 22:20 UTC
Vent 2 kt de ouest/sud-ouest
Température 0°C
Humidité 100%
Pression 1021 hPa
Visibilité: 0100 m
brouillard givrant

METAR: LSZC 252220Z AUTO 25002KT 0100 FZFG VV000 00/M00 Q1021

Heure: 23:50 (22:50 UTC)

Prévision

Le bulletin a été fait il y a 27 heures et 33 minutes, à 19:17 UTC
Prévision valable du 24 à 19 UTC au 24 à 24 UTC
Vent 3 kt de direction variable
Visibilité: 5000 m
brume
Temporairement
du 24 à 19 UTC au 24 à 24 UTC
Visibilité: 1400 m
Nuages fragmentés à une hauteur de 100 ft

TAF: LSZC 241917Z 2419/2424 VRB03KT 5000 BR NSC TEMPO 2419/2424 1400 BKN001

Observations et prévisions météorologiques de plus de 4000 aéroports (messages METAR et TAF).

Les stations disponibles sont représentées par des disques jaunes et rouges sur la carte.

Passer la souris dessus pour voir le nom de la station.

Cliquer dessus pour voir les observations et prévisions météorologiques.

Pour changer de carte: cliquez sur les boutons verts avec une croix noire pour zoomer, sur le bouton vert avec un tiret pour effectuer un zoom arrière, ou sur les flèches vertes pour les cartes adjacentes.


METAR-TAF: